createdAt,value
2022-11-15T00:02:17.696Z,106.67
2022-11-15T00:04:44.868Z,102.47
2022-11-15T00:07:18.001Z,104.20
2022-11-15T00:09:54.396Z,108.10
2022-11-15T00:12:21.625Z,108.27
2022-11-15T00:14:48.777Z,108.27
2022-11-15T00:17:15.921Z,102.10
2022-11-15T00:19:43.142Z,104.90
2022-11-15T00:22:10.305Z,110.33
2022-11-15T00:24:37.452Z,108.17
2022-11-15T00:27:07.668Z,113.50
2022-11-15T00:29:35.364Z,104.50
2022-11-15T00:32:02.513Z,102.57
2022-11-15T00:34:29.706Z,106.53
2022-11-15T00:36:56.894Z,89.70
2022-11-15T00:39:24.122Z,89.23
2022-11-15T00:41:51.295Z,104.10
2022-11-15T00:44:18.509Z,99.33
2022-11-15T00:46:45.665Z,95.10
2022-11-15T00:49:12.850Z,105.57
2022-11-15T00:51:40.005Z,99.50
2022-11-15T00:54:07.149Z,100.87
2022-11-15T00:56:34.503Z,103.43
2022-11-15T00:59:01.701Z,97.63
2022-11-15T01:01:28.898Z,97.97
2022-11-15T01:04:00.874Z,93.40
2022-11-15T01:06:28.534Z,87.73
2022-11-15T01:08:55.746Z,89.47
2022-11-15T01:11:22.906Z,84.83
2022-11-15T01:13:50.242Z,89.87
2022-11-15T01:16:19.333Z,79.43
2022-11-15T01:18:46.829Z,91.50
2022-11-15T01:21:15.147Z,98.63
2022-11-15T01:23:42.305Z,82.17
2022-11-15T01:26:10.998Z,86.07
2022-11-15T01:28:38.537Z,84.87
2022-11-15T01:31:06.644Z,84.63
2022-11-15T01:33:34.734Z,87.73
2022-11-15T01:36:05.012Z,83.70
2022-11-15T01:38:32.179Z,86.33
2022-11-15T01:40:59.334Z,86.63
2022-11-15T01:43:26.504Z,89.77
2022-11-15T01:46:04.597Z,82.97
2022-11-15T01:48:35.089Z,86.50
2022-11-15T01:51:02.840Z,80.50
2022-11-15T01:53:31.150Z,77.90
2022-11-15T01:55:58.630Z,77.73
2022-11-15T01:58:26.027Z,71.57
2022-11-15T02:00:53.261Z,69.40
2022-11-15T02:03:20.428Z,65.23
2022-11-15T02:05:47.575Z,59.70
2022-11-15T02:08:21.001Z,53.63
2022-11-15T02:10:48.464Z,47.97
2022-11-15T02:13:18.493Z,52.43
2022-11-15T02:15:49.732Z,50.90
2022-11-15T02:18:36.081Z,58.97
2022-11-15T02:21:03.250Z,57.03
2022-11-15T02:23:33.759Z,59.63
2022-11-15T02:26:04.336Z,58.13
2022-11-15T02:28:37.053Z,57.03
2022-11-15T02:31:22.979Z,57.97
2022-11-15T02:34:19.624Z,59.10
2022-11-15T02:37:05.373Z,61.23
2022-11-15T02:39:43.949Z,56.50
2022-11-15T02:42:33.107Z,55.70
2022-11-15T02:45:00.265Z,52.13
2022-11-15T02:47:27.419Z,49.00
2022-11-15T02:49:55.443Z,45.97
2022-11-15T02:52:22.992Z,45.87
2022-11-15T02:54:56.961Z,43.13
2022-11-15T02:57:46.097Z,41.63
2022-11-15T03:00:14.784Z,41.13
2022-11-15T03:02:41.931Z,41.63
2022-11-15T03:05:14.958Z,38.80
2022-11-15T03:07:47.889Z,38.97
2022-11-15T03:10:23.768Z,38.20
2022-11-15T03:12:53.832Z,38.00
2022-11-15T03:15:23.518Z,39.70
2022-11-15T03:18:04.184Z,39.23
2022-11-15T03:20:31.352Z,38.17
2022-11-15T03:23:16.737Z,38.17
2022-11-15T03:25:44.967Z,38.50
2022-11-15T03:28:13.173Z,38.83
2022-11-15T03:30:40.358Z,35.67
2022-11-15T03:33:07.554Z,33.13
2022-11-15T03:35:35.749Z,30.47
2022-11-15T03:38:22.117Z,29.97
2022-11-15T03:41:07.921Z,28.70
2022-11-15T03:43:41.868Z,30.60
2022-11-15T03:46:16.393Z,34.20
2022-11-15T03:48:48.832Z,31.37
2022-11-15T03:51:15.988Z,31.93
2022-11-15T03:53:43.152Z,31.50
2022-11-15T03:56:10.354Z,39.00
2022-11-15T03:58:37.496Z,45.43
2022-11-15T04:01:04.745Z,45.67
2022-11-15T04:03:32.192Z,45.57
2022-11-15T04:05:59.525Z,47.67
2022-11-15T04:08:26.669Z,47.13
2022-11-15T04:10:53.861Z,46.17
2022-11-15T04:13:21.000Z,47.13
2022-11-15T04:15:48.161Z,47.77
2022-11-15T04:18:15.350Z,48.53
2022-11-15T04:21:00.885Z,51.03
2022-11-15T04:23:46.587Z,54.37
2022-11-15T04:26:14.718Z,58.83
2022-11-15T04:29:02.158Z,62.13
2022-11-15T04:31:29.433Z,63.17
2022-11-15T04:33:56.634Z,66.23
2022-11-15T04:36:42.672Z,65.30
2022-11-15T04:39:09.820Z,60.70
2022-11-15T04:41:37.047Z,64.83
2022-11-15T04:44:04.281Z,62.17
2022-11-15T04:46:31.430Z,63.40
2022-11-15T04:48:59.468Z,67.83
2022-11-15T04:51:27.016Z,82.63
2022-11-15T04:53:54.185Z,77.93
2022-11-15T04:56:21.334Z,84.67
2022-11-15T04:58:50.710Z,79.67
2022-11-15T05:01:17.947Z,69.57
2022-11-15T05:04:04.177Z,71.97
2022-11-15T05:06:31.488Z,76.70
2022-11-15T05:08:58.752Z,77.10
2022-11-15T05:11:26.035Z,86.30
2022-11-15T05:13:53.219Z,94.30
2022-11-15T05:16:20.428Z,85.27
2022-11-15T05:18:47.612Z,70.63
2022-11-15T05:21:15.511Z,72.10
2022-11-15T05:23:42.696Z,70.67
2022-11-15T05:26:09.992Z,79.27
2022-11-15T05:28:37.560Z,95.67
2022-11-15T05:31:08.548Z,89.67
2022-11-15T05:33:35.863Z,80.53
2022-11-15T05:36:04.843Z,73.93
2022-11-15T05:38:32.004Z,82.30
2022-11-15T05:40:59.200Z,87.47
2022-11-15T05:43:26.354Z,89.53
2022-11-15T05:45:53.506Z,80.87
2022-11-15T05:48:20.685Z,79.70
2022-11-15T05:50:48.192Z,75.60
2022-11-15T05:53:16.646Z,77.00
2022-11-15T05:55:43.905Z,78.90
2022-11-15T05:58:11.093Z,74.53
2022-11-15T06:00:38.349Z,76.43
2022-11-15T06:03:05.531Z,70.20
2022-11-15T06:05:32.697Z,70.27
2022-11-15T06:08:00.066Z,70.73
2022-11-15T06:10:27.249Z,65.40
2022-11-15T06:13:00.528Z,67.47
2022-11-15T06:15:27.790Z,64.67
2022-11-15T06:17:58.452Z,103.27
2022-11-15T06:20:26.278Z,135.30
2022-11-15T06:22:57.708Z,155.70
2022-11-15T06:25:25.103Z,130.70
2022-11-15T06:27:55.528Z,153.00
2022-11-15T06:30:22.906Z,189.40
2022-11-15T06:32:50.149Z,171.40
2022-11-15T06:35:17.416Z,163.27
2022-11-15T06:37:44.661Z,140.50
2022-11-15T06:40:12.217Z,184.63
2022-11-15T06:42:39.368Z,164.07
2022-11-15T06:45:06.860Z,176.57
2022-11-15T06:47:34.094Z,158.93
2022-11-15T06:50:01.351Z,155.27
2022-11-15T06:52:33.484Z,146.53
2022-11-15T06:55:00.676Z,143.40
2022-11-15T06:57:27.854Z,146.50
2022-11-15T06:59:55.263Z,146.40
2022-11-15T07:02:22.420Z,147.77
2022-11-15T07:04:49.564Z,140.90
2022-11-15T07:07:16.765Z,136.97
2022-11-15T07:09:44.124Z,133.63
2022-11-15T07:12:11.296Z,127.50
2022-11-15T07:14:38.477Z,123.97
2022-11-15T07:17:06.187Z,114.30
2022-11-15T07:19:33.478Z,112.17
2022-11-15T07:22:00.690Z,161.50
2022-11-15T07:24:27.939Z,113.30
2022-11-15T07:26:55.091Z,113.17
2022-11-15T07:29:22.359Z,130.90
2022-11-15T07:31:49.951Z,119.30
2022-11-15T07:34:17.138Z,114.73
2022-11-15T07:36:44.316Z,123.47
2022-11-15T07:39:13.127Z,127.87
2022-11-15T07:41:40.281Z,140.77
2022-11-15T07:44:07.486Z,105.47
2022-11-15T07:46:34.633Z,111.60
2022-11-15T07:49:01.784Z,115.50
2022-11-15T07:51:28.978Z,110.00
2022-11-15T07:53:56.133Z,114.90
2022-11-15T07:56:23.367Z,102.80
2022-11-15T07:58:51.305Z,93.23
2022-11-15T08:01:18.606Z,100.57
2022-11-15T08:03:45.830Z,68.80
2022-11-15T08:06:13.025Z,55.70
2022-11-15T08:08:40.189Z,52.13
2022-11-15T08:11:07.407Z,60.87
2022-11-15T08:13:34.911Z,73.40
2022-11-15T08:16:02.567Z,60.83
2022-11-15T08:18:29.777Z,57.07
2022-11-15T08:20:59.775Z,85.63
2022-11-15T08:23:26.978Z,59.93
2022-11-15T08:25:54.120Z,64.90
2022-11-15T08:28:22.022Z,77.17
2022-11-15T08:30:49.182Z,100.90
2022-11-15T08:33:16.435Z,110.73
2022-11-15T08:35:43.623Z,105.47
2022-11-15T08:38:10.945Z,99.23
2022-11-15T08:40:38.322Z,97.40
2022-11-15T08:43:05.661Z,98.17
2022-11-15T08:45:32.943Z,95.03
2022-11-15T08:48:00.126Z,79.00
2022-11-15T08:50:27.318Z,80.70
2022-11-15T08:52:54.488Z,83.63
2022-11-15T08:55:24.592Z,68.30
2022-11-15T08:57:52.245Z,70.33
2022-11-15T09:00:20.962Z,81.70
2022-11-15T09:02:48.217Z,64.63
2022-11-15T09:05:16.644Z,64.70
2022-11-15T09:07:44.498Z,64.03
2022-11-15T09:10:11.757Z,61.17
2022-11-15T09:12:39.007Z,60.90
2022-11-15T09:15:07.048Z,50.38
2022-11-15T09:17:34.237Z,43.33
2022-11-15T09:20:01.433Z,35.47
2022-11-15T09:22:29.582Z,31.92
2022-11-15T09:24:56.733Z,32.17
2022-11-15T09:27:24.146Z,32.03
2022-11-15T09:29:51.331Z,33.85
2022-11-15T09:32:18.496Z,28.42
2022-11-15T09:34:45.681Z,24.00
2022-11-15T09:37:13.332Z,22.52
2022-11-15T09:39:40.491Z,24.38
2022-11-15T09:42:17.022Z,23.48
2022-11-15T09:45:02.553Z,21.98
2022-11-15T09:47:32.895Z,16.48
2022-11-15T09:50:00.653Z,14.75
2022-11-15T09:52:27.804Z,15.15
2022-11-15T09:54:56.204Z,15.75
2022-11-15T09:57:23.755Z,15.98
2022-11-15T09:59:57.137Z,15.02
2022-11-15T10:02:42.515Z,14.55
2022-11-15T10:05:10.161Z,14.60
2022-11-15T10:08:12.825Z,14.98
2022-11-15T10:10:47.814Z,13.82
2022-11-15T10:13:16.567Z,13.02
2022-11-15T10:15:46.332Z,13.75
2022-11-15T10:18:17.202Z,15.77
2022-11-15T10:20:47.877Z,16.02
2022-11-15T10:23:16.038Z,14.70
2022-11-15T10:25:44.554Z,13.15
2022-11-15T10:28:21.116Z,13.32
2022-11-15T10:30:53.293Z,13.98
2022-11-15T10:33:27.945Z,12.95
2022-11-15T10:36:15.415Z,13.63
2022-11-15T10:38:51.764Z,14.90
2022-11-15T10:41:20.256Z,16.30
2022-11-15T10:43:47.654Z,20.05
2022-11-15T10:46:44.937Z,25.90
2022-11-15T10:49:20.683Z,31.38
2022-11-15T10:51:57.634Z,28.70
2022-11-15T10:54:27.798Z,26.88
2022-11-15T10:56:55.725Z,21.80
2022-11-15T10:59:28.071Z,17.02
2022-11-15T11:01:55.325Z,16.90
2022-11-15T11:04:22.555Z,18.10
2022-11-15T11:06:53.701Z,17.13
2022-11-15T11:09:43.948Z,16.73
2022-11-15T11:12:11.848Z,15.32
2022-11-15T11:14:39.512Z,21.05
2022-11-15T11:17:30.499Z,19.48
2022-11-15T11:20:04.609Z,16.55
2022-11-15T11:23:10.416Z,16.65
2022-11-15T11:25:38.269Z,26.40
2022-11-15T11:28:11.606Z,20.98
2022-11-15T11:30:59.639Z,14.85
2022-11-15T11:33:29.169Z,16.00
2022-11-15T11:36:15.619Z,16.38
2022-11-15T11:38:52.088Z,12.80
2022-11-15T11:41:22.286Z,11.32
2022-11-15T11:44:07.989Z,11.45
2022-11-15T11:46:44.426Z,11.88
2022-11-15T11:49:12.515Z,12.63
2022-11-15T11:51:41.560Z,12.65
2022-11-15T11:54:25.000Z,12.80
2022-11-15T11:56:52.433Z,13.02
2022-11-15T11:59:21.847Z,14.10
2022-11-15T12:01:49.169Z,13.35
2022-11-15T12:04:16.405Z,13.38
2022-11-15T12:06:54.340Z,13.45
2022-11-15T12:09:21.969Z,11.43
2022-11-15T12:12:04.491Z,12.90
2022-11-15T12:14:33.904Z,16.38
2022-11-15T12:17:01.110Z,20.25
2022-11-15T12:19:28.309Z,16.75
2022-11-15T12:22:15.769Z,15.05
2022-11-15T12:24:43.729Z,14.98
2022-11-15T12:27:10.872Z,14.45
2022-11-15T12:29:45.757Z,16.83
2022-11-15T12:32:33.972Z,16.15
2022-11-15T12:35:01.352Z,17.50
2022-11-15T12:37:38.793Z,20.50
2022-11-15T12:40:09.074Z,25.30
2022-11-15T12:42:36.981Z,24.73
2022-11-15T12:45:04.217Z,23.50
2022-11-15T12:47:31.406Z,31.00
2022-11-15T12:49:58.602Z,30.00
2022-11-15T12:52:25.751Z,75.47
2022-11-15T12:55:00.257Z,69.32
2022-11-15T12:57:34.520Z,32.10
2022-11-15T13:00:03.599Z,27.48
2022-11-15T13:02:34.908Z,27.85
2022-11-15T13:05:19.246Z,34.25
2022-11-15T13:07:46.422Z,37.17
2022-11-15T13:10:13.660Z,39.95
2022-11-15T13:12:46.636Z,38.70
2022-11-15T13:15:13.797Z,32.97
2022-11-15T13:17:53.810Z,31.08
2022-11-15T13:20:22.561Z,29.30
2022-11-15T13:22:55.409Z,32.50
2022-11-15T13:25:22.582Z,30.88
2022-11-15T13:27:50.205Z,36.25
2022-11-15T13:30:21.852Z,32.75
2022-11-15T13:32:49.118Z,34.72
2022-11-15T13:35:26.069Z,45.97
2022-11-15T13:37:53.592Z,42.53
2022-11-15T13:40:22.785Z,35.45
2022-11-15T13:42:50.028Z,33.20
2022-11-15T13:45:17.673Z,31.30
2022-11-15T13:47:44.870Z,20.20
2022-11-15T13:50:12.910Z,20.92
2022-11-15T13:52:41.556Z,24.13
2022-11-15T13:55:14.329Z,47.92
2022-11-15T13:57:48.359Z,22.15
2022-11-15T14:00:29.380Z,21.58
2022-11-15T14:02:56.570Z,28.55
2022-11-15T14:05:24.257Z,32.75
2022-11-15T14:08:24.303Z,24.40
2022-11-15T14:11:06.967Z,28.05
2022-11-15T14:13:34.186Z,28.77
2022-11-15T14:16:33.958Z,24.15
2022-11-15T14:19:01.622Z,21.77
2022-11-15T14:21:28.896Z,25.17
2022-11-15T14:24:15.415Z,23.13
2022-11-15T14:26:43.195Z,26.92
2022-11-15T14:29:25.444Z,26.20
2022-11-15T14:31:52.688Z,28.13
2022-11-15T14:34:19.965Z,41.90
2022-11-15T14:36:47.169Z,38.63
2022-11-15T14:39:14.337Z,37.22
2022-11-15T14:41:41.554Z,38.65
2022-11-15T14:44:11.281Z,35.80
2022-11-15T14:46:38.462Z,31.63
2022-11-15T14:49:05.638Z,30.50
2022-11-15T14:51:33.989Z,36.97
2022-11-15T14:54:01.206Z,42.72
2022-11-15T14:56:28.370Z,36.47
2022-11-15T14:58:56.347Z,37.78
2022-11-15T15:01:25.743Z,41.85
2022-11-15T15:03:53.178Z,42.90
2022-11-15T15:06:20.759Z,42.55
2022-11-15T15:08:51.332Z,38.63
2022-11-15T15:11:28.475Z,36.88
2022-11-15T15:13:58.047Z,43.72
2022-11-15T15:16:25.690Z,43.17
2022-11-15T15:18:52.918Z,43.42
2022-11-15T15:21:33.616Z,40.70
2022-11-15T15:24:04.074Z,42.67
2022-11-15T15:26:34.674Z,43.78
2022-11-15T15:29:01.859Z,45.13
2022-11-15T15:31:29.064Z,46.28
2022-11-15T15:33:56.227Z,45.88
2022-11-15T15:36:23.379Z,44.63
2022-11-15T15:38:50.572Z,44.75
2022-11-15T15:41:18.161Z,42.67
2022-11-15T15:43:45.378Z,43.00
2022-11-15T15:46:16.360Z,43.58
2022-11-15T15:48:43.661Z,47.03
2022-11-15T15:51:15.683Z,50.05
2022-11-15T15:53:45.855Z,49.42
2022-11-15T15:56:13.032Z,47.08
2022-11-15T15:58:40.189Z,55.40
2022-11-15T16:01:07.510Z,56.83
2022-11-15T16:03:34.714Z,51.00
2022-11-15T16:06:02.171Z,54.30
2022-11-15T16:08:42.441Z,81.15
2022-11-15T16:11:15.125Z,56.20
2022-11-15T16:13:42.309Z,73.70
2022-11-15T16:16:09.816Z,68.38
2022-11-15T16:18:36.974Z,71.32
2022-11-15T16:21:04.213Z,59.85
2022-11-15T16:23:31.397Z,71.38
2022-11-15T16:25:58.557Z,362.02
2022-11-15T16:28:29.392Z,201.18
2022-11-15T16:31:05.865Z,239.90
2022-11-15T16:33:33.510Z,206.10
2022-11-15T16:36:01.090Z,197.45
2022-11-15T16:38:28.304Z,194.88
2022-11-15T16:40:55.552Z,191.75
2022-11-15T16:43:22.733Z,166.57
2022-11-15T16:45:50.276Z,129.57
2022-11-15T16:48:22.633Z,153.50
2022-11-15T16:50:49.858Z,140.57
2022-11-15T16:53:17.034Z,119.90
2022-11-15T16:55:44.236Z,123.53
2022-11-15T16:58:11.396Z,123.00
2022-11-15T17:00:38.626Z,117.30
2022-11-15T17:03:05.877Z,126.72
2022-11-15T17:05:33.129Z,122.78
2022-11-15T17:08:00.317Z,115.57
2022-11-15T17:10:27.563Z,124.93
2022-11-15T17:12:55.912Z,119.20
2022-11-15T17:15:24.481Z,117.25
2022-11-15T17:17:52.568Z,117.57
2022-11-15T17:20:19.873Z,118.93
2022-11-15T17:22:47.443Z,120.07
2022-11-15T17:25:14.830Z,126.95
2022-11-15T17:27:42.020Z,134.93
2022-11-15T17:30:09.345Z,137.23
2022-11-15T17:32:39.981Z,137.65
2022-11-15T17:35:11.980Z,147.65
2022-11-15T17:37:42.160Z,155.63
2022-11-15T17:40:09.597Z,148.13
2022-11-15T17:42:36.788Z,148.60
2022-11-15T17:45:09.253Z,140.30
2022-11-15T17:47:36.946Z,135.98
2022-11-15T17:50:04.223Z,126.85
2022-11-15T17:52:31.453Z,128.25
2022-11-15T17:54:58.594Z,134.35
2022-11-15T17:57:25.766Z,132.27
2022-11-15T17:59:53.185Z,137.68
2022-11-15T18:02:20.367Z,148.75
2022-11-15T18:04:47.577Z,145.70
2022-11-15T18:07:14.852Z,165.02
2022-11-15T18:09:44.052Z,144.23
2022-11-15T18:12:11.708Z,141.93
2022-11-15T18:14:39.171Z,159.98
2022-11-15T18:17:06.405Z,174.43
2022-11-15T18:19:33.769Z,193.25
2022-11-15T18:22:01.809Z,217.13
2022-11-15T18:24:29.906Z,231.18
2022-11-15T18:26:57.296Z,221.20
2022-11-15T18:29:27.816Z,207.30
2022-11-15T18:31:55.842Z,209.98
2022-11-15T18:34:28.829Z,207.63
2022-11-15T18:36:55.989Z,208.48
2022-11-15T18:39:23.100Z,208.48
2022-11-15T18:41:50.483Z,203.88
2022-11-15T18:44:17.915Z,211.70
2022-11-15T18:46:45.258Z,222.65
2022-11-15T18:49:13.294Z,209.55
2022-11-15T18:51:43.322Z,217.10
2022-11-15T18:54:11.228Z,210.10
2022-11-15T18:56:38.527Z,209.60
2022-11-15T18:59:05.881Z,203.32
2022-11-15T19:01:34.546Z,206.15
2022-11-15T19:04:11.606Z,203.75
2022-11-15T19:06:39.508Z,199.52
2022-11-15T19:09:06.820Z,196.10
2022-11-15T19:11:35.845Z,191.27
2022-11-15T19:14:06.973Z,197.48
2022-11-15T19:16:34.872Z,191.75
2022-11-15T19:19:02.742Z,188.63
2022-11-15T19:21:31.119Z,189.65
2022-11-15T19:23:58.639Z,180.30
2022-11-15T19:26:26.009Z,169.65
2022-11-15T19:28:54.013Z,171.65
2022-11-15T19:31:21.318Z,183.25
2022-11-15T19:33:48.529Z,178.43
2022-11-15T19:36:15.698Z,180.05
2022-11-15T19:38:42.922Z,186.73
2022-11-15T19:41:14.108Z,190.43
2022-11-15T19:43:41.387Z,189.07
2022-11-15T19:46:10.097Z,194.70
2022-11-15T19:48:37.313Z,196.85
2022-11-15T19:51:05.581Z,176.00
2022-11-15T19:53:35.379Z,164.90
2022-11-15T19:56:03.551Z,175.50
2022-11-15T19:58:31.185Z,195.65
2022-11-15T20:01:03.012Z,180.00
2022-11-15T20:03:31.264Z,174.35
2022-11-15T20:06:09.035Z,181.57
2022-11-15T20:08:36.609Z,181.02
2022-11-15T20:11:04.354Z,188.20
2022-11-15T20:13:31.658Z,195.88
2022-11-15T20:15:58.868Z,205.27
2022-11-15T20:18:26.268Z,213.18
2022-11-15T20:20:54.717Z,209.82
2022-11-15T20:23:21.897Z,239.80
2022-11-15T20:25:49.148Z,221.65
2022-11-15T20:28:17.552Z,215.70
2022-11-15T20:30:45.352Z,197.20
2022-11-15T20:33:13.893Z,178.88
2022-11-15T20:35:41.373Z,202.20
2022-11-15T20:38:08.776Z,227.90
2022-11-15T20:40:35.994Z,210.20
2022-11-15T20:43:03.231Z,225.70
2022-11-15T20:45:30.425Z,218.45
2022-11-15T20:48:00.336Z,208.60
2022-11-15T20:50:42.279Z,211.57
2022-11-15T20:53:10.968Z,243.55
2022-11-15T20:55:41.537Z,265.42
2022-11-15T20:58:09.153Z,247.35
2022-11-15T21:00:37.052Z,266.05
2022-11-15T21:03:07.816Z,281.90
2022-11-15T21:05:35.746Z,281.15
2022-11-15T21:08:03.020Z,304.77
2022-11-15T21:10:48.706Z,278.15
2022-11-15T21:13:15.960Z,275.58
2022-11-15T21:15:43.105Z,272.80
2022-11-15T21:18:10.299Z,267.13
2022-11-15T21:20:37.550Z,256.98
2022-11-15T21:23:04.709Z,313.25
2022-11-15T21:25:33.186Z,313.52
2022-11-15T21:28:00.538Z,312.23
2022-11-15T21:30:27.849Z,303.90
2022-11-15T21:32:55.081Z,306.15
2022-11-15T21:35:22.691Z,317.13
2022-11-15T21:37:56.160Z,315.67
2022-11-15T21:40:23.821Z,321.75
2022-11-15T21:42:50.991Z,318.85
2022-11-15T21:45:18.151Z,297.77
2022-11-15T21:47:46.549Z,303.52
2022-11-15T21:50:14.145Z,289.25
2022-11-15T21:52:41.412Z,288.20
2022-11-15T21:55:09.006Z,282.67
2022-11-15T21:57:36.284Z,282.42
2022-11-15T22:00:22.469Z,276.33
2022-11-15T22:02:49.612Z,278.02
2022-11-15T22:08:01.814Z,267.13
2022-11-15T22:10:29.013Z,260.95
2022-11-15T22:12:56.226Z,263.92
2022-11-15T22:15:23.425Z,287.02
2022-11-15T22:17:59.901Z,295.10
2022-11-15T22:20:43.934Z,275.52
2022-11-15T22:23:12.217Z,272.38
2022-11-15T22:25:39.470Z,255.00
2022-11-15T22:28:06.753Z,246.98
2022-11-15T22:30:33.963Z,250.15
2022-11-15T22:33:01.292Z,240.85
2022-11-15T22:35:28.787Z,232.98
2022-11-15T22:37:56.016Z,228.68
2022-11-15T22:40:23.249Z,233.65
2022-11-15T22:42:50.450Z,240.23
2022-11-15T22:45:17.706Z,236.73
2022-11-15T22:47:44.934Z,223.45
2022-11-15T22:50:12.126Z,231.70
2022-11-15T22:52:39.343Z,223.27
2022-11-15T22:55:06.919Z,224.38
2022-11-15T22:57:34.155Z,234.55
2022-11-15T23:00:01.358Z,227.32
2022-11-15T23:02:28.603Z,222.90
2022-11-15T23:04:55.888Z,220.52
2022-11-15T23:07:23.157Z,231.35
2022-11-15T23:09:52.204Z,221.00
2022-11-15T23:12:38.455Z,216.35
2022-11-15T23:15:05.958Z,216.70
2022-11-15T23:17:33.158Z,217.40
2022-11-15T23:20:07.450Z,214.82
2022-11-15T23:22:47.593Z,216.68
2022-11-15T23:25:14.825Z,212.32
2022-11-15T23:27:42.060Z,214.88
2022-11-15T23:30:28.409Z,214.25
2022-11-15T23:33:14.273Z,214.75
2022-11-15T23:35:41.578Z,208.85
2022-11-15T23:38:08.796Z,218.27
2022-11-15T23:40:36.008Z,220.65
2022-11-15T23:43:03.270Z,217.82
2022-11-15T23:45:30.493Z,222.32
2022-11-15T23:48:01.435Z,218.85
2022-11-15T23:50:29.137Z,206.15
2022-11-15T23:52:56.341Z,217.40
2022-11-15T23:55:23.537Z,211.15
2022-11-15T23:57:50.770Z,207.63
